Terminal Aerodrome Forecast
Issued by NWS Charleston, WV

Current Version | Previous Version | Graphics & Text | Print | Product List | Glossary On
Versions: 1 2 3 4 5 6 7 8 9 10 11 12 13 14 15 16 17 18 19 20 21 22 23 24 25 26
000
FTUS41 KRLX 231100 AAA
TAFCRW
TAF AMD
KCRW 231154Z 2312/2412 32003KT P6SM SCT018 BKN035
      TEMPO 2312/2314 BKN018
     FM231400 30005KT P6SM SCT015 BKN035
     FM232000 31004KT P6SM SCT025
     FM240500 00000KT P6SM FEW150=

USA.gov is the U.S. government's official web portal to all federal, state and local government web resources and services.